sensor_id;sensor_type;location;lat;lon;timestamp;temperature;humidity
18218;DHT22;9234;49.344;11.120;2023-08-20T00:01:57;23.10;99.90
18218;DHT22;9234;49.344;11.120;2023-08-20T00:04:31;23.10;99.90
18218;DHT22;9234;49.344;11.120;2023-08-20T00:07:04;23.00;99.90
18218;DHT22;9234;49.344;11.120;2023-08-20T00:09:33;23.00;99.90
18218;DHT22;9234;49.344;11.120;2023-08-20T00:12:01;23.00;99.90
18218;DHT22;9234;49.344;11.120;2023-08-20T00:14:54;22.90;99.90
18218;DHT22;9234;49.344;11.120;2023-08-20T00:17:25;22.90;99.90
18218;DHT22;9234;49.344;11.120;2023-08-20T00:19:56;22.90;99.90
18218;DHT22;9234;49.344;11.120;2023-08-20T00:22:26;22.80;99.90
18218;DHT22;9234;49.344;11.120;2023-08-20T00:24:55;22.80;99.90
18218;DHT22;9234;49.344;11.120;2023-08-20T00:27:23;22.80;99.90
18218;DHT22;9234;49.344;11.120;2023-08-20T00:29:52;22.80;99.90
18218;DHT22;9234;49.344;11.120;2023-08-20T00:32:20;22.80;99.90
18218;DHT22;9234;49.344;11.120;2023-08-20T00:34:48;22.80;99.90
18218;DHT22;9234;49.344;11.120;2023-08-20T00:37:18;22.80;99.90
18218;DHT22;9234;49.344;11.120;2023-08-20T00:39:46;22.70;99.90
18218;DHT22;9234;49.344;11.120;2023-08-20T00:42:15;22.70;99.90
18218;DHT22;9234;49.344;11.120;2023-08-20T00:44:44;22.70;99.90
18218;DHT22;9234;49.344;11.120;2023-08-20T00:47:13;22.70;99.90
18218;DHT22;9234;49.344;11.120;2023-08-20T00:49:41;22.70;99.90
18218;DHT22;9234;49.344;11.120;2023-08-20T00:52:11;22.70;99.90
18218;DHT22;9234;49.344;11.120;2023-08-20T00:54:44;22.60;99.90
18218;DHT22;9234;49.344;11.120;2023-08-20T00:57:13;22.60;99.90
18218;DHT22;9234;49.344;11.120;2023-08-20T00:59:43;22.60;99.90
18218;DHT22;9234;49.344;11.120;2023-08-20T01:02:15;22.60;99.90
18218;DHT22;9234;49.344;11.120;2023-08-20T01:04:46;22.50;99.90
18218;DHT22;9234;49.344;11.120;2023-08-20T01:07:23;22.50;99.90
18218;DHT22;9234;49.344;11.120;2023-08-20T01:10:03;22.50;99.90
18218;DHT22;9234;49.344;11.120;2023-08-20T01:12:36;22.50;99.90
18218;DHT22;9234;49.344;11.120;2023-08-20T01:15:07;22.40;99.90
18218;DHT22;9234;49.344;11.120;2023-08-20T01:17:40;22.40;99.90
18218;DHT22;9234;49.344;11.120;2023-08-20T01:20:10;22.40;99.90
18218;DHT22;9234;49.344;11.120;2023-08-20T01:23:19;22.30;99.90
18218;DHT22;9234;49.344;11.120;2023-08-20T01:26:21;22.30;99.90
18218;DHT22;9234;49.344;11.120;2023-08-20T01:29:00;22.20;99.90
18218;DHT22;9234;49.344;11.120;2023-08-20T01:31:28;22.20;99.90
18218;DHT22;9234;49.344;11.120;2023-08-20T01:33:57;22.10;99.90
18218;DHT22;9234;49.344;11.120;2023-08-20T01:36:27;22.10;99.90
18218;DHT22;9234;49.344;11.120;2023-08-20T01:38:55;22.00;99.90
18218;DHT22;9234;49.344;11.120;2023-08-20T01:41:24;22.00;99.90
18218;DHT22;9234;49.344;11.120;2023-08-20T01:43:53;21.90;99.90
18218;DHT22;9234;49.344;11.120;2023-08-20T01:46:23;21.90;99.90
18218;DHT22;9234;49.344;11.120;2023-08-20T01:48:51;21.90;99.90
18218;DHT22;9234;49.344;11.120;2023-08-20T01:51:19;21.80;99.90
18218;DHT22;9234;49.344;11.120;2023-08-20T01:53:47;21.80;99.90
18218;DHT22;9234;49.344;11.120;2023-08-20T01:56:16;21.70;99.90
18218;DHT22;9234;49.344;11.120;2023-08-20T01:58:44;21.70;99.90
18218;DHT22;9234;49.344;11.120;2023-08-20T02:01:12;21.60;99.90
18218;DHT22;9234;49.344;11.120;2023-08-20T02:03:42;21.60;99.90
18218;DHT22;9234;49.344;11.120;2023-08-20T02:06:10;21.60;99.90
18218;DHT22;9234;49.344;11.120;2023-08-20T02:08:39;21.50;99.90
18218;DHT22;9234;49.344;11.120;2023-08-20T02:11:07;21.50;99.90
18218;DHT22;9234;49.344;11.120;2023-08-20T02:13:35;21.40;99.90
18218;DHT22;9234;49.344;11.120;2023-08-20T02:16:04;21.40;99.90
18218;DHT22;9234;49.344;11.120;2023-08-20T02:18:33;21.40;99.90
18218;DHT22;9234;49.344;11.120;2023-08-20T02:21:03;21.30;99.90
18218;DHT22;9234;49.344;11.120;2023-08-20T02:23:31;21.30;99.90
18218;DHT22;9234;49.344;11.120;2023-08-20T02:26:01;21.20;99.90
18218;DHT22;9234;49.344;11.120;2023-08-20T02:28:29;21.20;99.90
18218;DHT22;9234;49.344;11.120;2023-08-20T02:30:58;21.20;99.90
18218;DHT22;9234;49.344;11.120;2023-08-20T02:33:27;21.10;99.90
18218;DHT22;9234;49.344;11.120;2023-08-20T02:35:55;21.10;99.90
18218;DHT22;9234;49.344;11.120;2023-08-20T02:38:30;21.10;99.90
18218;DHT22;9234;49.344;11.120;2023-08-20T02:40:58;21.10;99.90
18218;DHT22;9234;49.344;11.120;2023-08-20T02:43:26;21.00;99.90
18218;DHT22;9234;49.344;11.120;2023-08-20T02:45:55;21.00;99.90
18218;DHT22;9234;49.344;11.120;2023-08-20T02:48:23;21.00;99.90
18218;DHT22;9234;49.344;11.120;2023-08-20T02:50:53;21.00;99.90
18218;DHT22;9234;49.344;11.120;2023-08-20T02:53:22;20.90;99.90
18218;DHT22;9234;49.344;11.120;2023-08-20T02:55:52;20.90;99.90
18218;DHT22;9234;49.344;11.120;2023-08-20T02:58:20;20.90;99.90
18218;DHT22;9234;49.344;11.120;2023-08-20T03:00:48;20.80;99.90
18218;DHT22;9234;49.344;11.120;2023-08-20T03:03:17;20.80;99.90
18218;DHT22;9234;49.344;11.120;2023-08-20T03:05:45;20.80;99.90
18218;DHT22;9234;49.344;11.120;2023-08-20T03:08:13;20.70;99.90
18218;DHT22;9234;49.344;11.120;2023-08-20T03:10:41;20.70;99.90
18218;DHT22;9234;49.344;11.120;2023-08-20T03:13:11;20.60;99.90
18218;DHT22;9234;49.344;11.120;2023-08-20T03:15:39;20.60;99.90
18218;DHT22;9234;49.344;11.120;2023-08-20T03:18:08;20.60;99.90
18218;DHT22;9234;49.344;11.120;2023-08-20T03:20:36;20.60;99.90
18218;DHT22;9234;49.344;11.120;2023-08-20T03:23:04;20.60;99.90
18218;DHT22;9234;49.344;11.120;2023-08-20T03:25:32;20.60;99.90
18218;DHT22;9234;49.344;11.120;2023-08-20T03:28:01;20.50;99.90
18218;DHT22;9234;49.344;11.120;2023-08-20T03:30:31;20.50;99.90
18218;DHT22;9234;49.344;11.120;2023-08-20T03:33:00;20.50;99.90
18218;DHT22;9234;49.344;11.120;2023-08-20T03:35:31;20.40;99.90
18218;DHT22;9234;49.344;11.120;2023-08-20T03:37:59;20.40;99.90
18218;DHT22;9234;49.344;11.120;2023-08-20T03:40:28;20.40;99.90
18218;DHT22;9234;49.344;11.120;2023-08-20T03:42:56;20.30;99.90
18218;DHT22;9234;49.344;11.120;2023-08-20T03:45:25;20.40;99.90
18218;DHT22;9234;49.344;11.120;2023-08-20T03:47:55;20.30;99.90
18218;DHT22;9234;49.344;11.120;2023-08-20T03:50:23;20.30;99.90
18218;DHT22;9234;49.344;11.120;2023-08-20T03:52:51;20.30;99.90
18218;DHT22;9234;49.344;11.120;2023-08-20T03:55:20;20.30;99.90
18218;DHT22;9234;49.344;11.120;2023-08-20T03:57:48;20.20;99.90
18218;DHT22;9234;49.344;11.120;2023-08-20T04:00:17;20.20;99.90
18218;DHT22;9234;49.344;11.120;2023-08-20T04:02:45;20.20;99.90
18218;DHT22;9234;49.344;11.120;2023-08-20T04:05:15;20.10;99.90
18218;DHT22;9234;49.344;11.120;2023-08-20T04:07:43;20.10;99.90
18218;DHT22;9234;49.344;11.120;2023-08-20T04:10:11;20.10;99.90
18218;DHT22;9234;49.344;11.120;2023-08-20T04:12:40;20.10;99.90
18218;DHT22;9234;49.344;11.120;2023-08-20T04:15:09;20.10;99.90
18218;DHT22;9234;49.344;11.120;2023-08-20T04:17:39;20.10;99.90
18218;DHT22;9234;49.344;11.120;2023-08-20T04:20:08;20.10;99.90
18218;DHT22;9234;49.344;11.120;2023-08-20T04:22:38;20.00;99.90
18218;DHT22;9234;49.344;11.120;2023-08-20T04:25:07;20.00;99.90
18218;DHT22;9234;49.344;11.120;2023-08-20T04:27:36;20.00;99.90
18218;DHT22;9234;49.344;11.120;2023-08-20T04:30:06;20.00;99.90
18218;DHT22;9234;49.344;11.120;2023-08-20T04:32:35;20.00;99.90
18218;DHT22;9234;49.344;11.120;2023-08-20T04:35:04;20.00;99.90
18218;DHT22;9234;49.344;11.120;2023-08-20T04:37:33;20.00;99.90
18218;DHT22;9234;49.344;11.120;2023-08-20T04:40:04;20.00;99.90
18218;DHT22;9234;49.344;11.120;2023-08-20T04:42:34;20.00;99.90
18218;DHT22;9234;49.344;11.120;2023-08-20T04:45:03;20.00;99.90
18218;DHT22;9234;49.344;11.120;2023-08-20T04:47:32;20.00;99.90
18218;DHT22;9234;49.344;11.120;2023-08-20T04:50:02;20.00;99.90
18218;DHT22;9234;49.344;11.120;2023-08-20T04:52:33;20.00;99.90
18218;DHT22;9234;49.344;11.120;2023-08-20T04:55:04;20.00;99.90
18218;DHT22;9234;49.344;11.120;2023-08-20T04:57:34;20.10;99.90
18218;DHT22;9234;49.344;11.120;2023-08-20T05:00:03;20.10;99.90
18218;DHT22;9234;49.344;11.120;2023-08-20T05:02:56;20.10;99.90
18218;DHT22;9234;49.344;11.120;2023-08-20T05:05:25;20.10;99.90
18218;DHT22;9234;49.344;11.120;2023-08-20T05:07:54;20.10;99.90
18218;DHT22;9234;49.344;11.120;2023-08-20T05:10:24;20.20;99.90
18218;DHT22;9234;49.344;11.120;2023-08-20T05:12:52;20.20;99.90
18218;DHT22;9234;49.344;11.120;2023-08-20T05:15:21;20.20;99.90
18218;DHT22;9234;49.344;11.120;2023-08-20T05:17:50;20.30;99.90
18218;DHT22;9234;49.344;11.120;2023-08-20T05:20:18;20.30;99.90
18218;DHT22;9234;49.344;11.120;2023-08-20T05:22:46;20.30;99.90
18218;DHT22;9234;49.344;11.120;2023-08-20T05:25:15;20.40;99.90
18218;DHT22;9234;49.344;11.120;2023-08-20T05:27:44;20.50;99.90
18218;DHT22;9234;49.344;11.120;2023-08-20T05:30:13;20.50;99.90
18218;DHT22;9234;49.344;11.120;2023-08-20T05:32:41;20.60;99.90
18218;DHT22;9234;49.344;11.120;2023-08-20T05:35:10;20.70;99.90
18218;DHT22;9234;49.344;11.120;2023-08-20T05:37:40;20.70;99.90
18218;DHT22;9234;49.344;11.120;2023-08-20T05:40:09;20.80;99.90
18218;DHT22;9234;49.344;11.120;2023-08-20T05:42:38;20.90;99.90
18218;DHT22;9234;49.344;11.120;2023-08-20T05:45:09;21.00;99.90
18218;DHT22;9234;49.344;11.120;2023-08-20T05:47:37;21.00;99.90
18218;DHT22;9234;49.344;11.120;2023-08-20T05:50:07;21.10;99.90
18218;DHT22;9234;49.344;11.120;2023-08-20T05:52:36;21.20;99.90
18218;DHT22;9234;49.344;11.120;2023-08-20T05:55:05;21.20;99.90
18218;DHT22;9234;49.344;11.120;2023-08-20T05:57:35;21.30;99.90
18218;DHT22;9234;49.344;11.120;2023-08-20T06:00:05;21.40;99.90
18218;DHT22;9234;49.344;11.120;2023-08-20T06:02:40;21.40;99.90
18218;DHT22;9234;49.344;11.120;2023-08-20T06:05:09;21.50;99.90
18218;DHT22;9234;49.344;11.120;2023-08-20T06:07:38;21.50;99.90
18218;DHT22;9234;49.344;11.120;2023-08-20T06:10:07;21.60;99.90
18218;DHT22;9234;49.344;11.120;2023-08-20T06:12:36;21.70;99.90
18218;DHT22;9234;49.344;11.120;2023-08-20T06:15:05;21.80;99.90
18218;DHT22;9234;49.344;11.120;2023-08-20T06:17:36;21.80;99.90
18218;DHT22;9234;49.344;11.120;2023-08-20T06:20:07;21.90;99.90
18218;DHT22;9234;49.344;11.120;2023-08-20T06:22:38;22.00;99.90
18218;DHT22;9234;49.344;11.120;2023-08-20T06:25:07;22.10;99.90
18218;DHT22;9234;49.344;11.120;2023-08-20T06:27:36;22.20;99.90
18218;DHT22;9234;49.344;11.120;2023-08-20T06:30:05;22.30;99.90
18218;DHT22;9234;49.344;11.120;2023-08-20T06:32:34;22.30;99.90
18218;DHT22;9234;49.344;11.120;2023-08-20T06:35:03;22.40;99.90
18218;DHT22;9234;49.344;11.120;2023-08-20T06:37:33;22.50;99.90
18218;DHT22;9234;49.344;11.120;2023-08-20T06:40:02;22.60;99.90
18218;DHT22;9234;49.344;11.120;2023-08-20T06:42:32;22.70;99.90
18218;DHT22;9234;49.344;11.120;2023-08-20T06:45:00;22.80;99.90
18218;DHT22;9234;49.344;11.120;2023-08-20T06:47:28;22.90;99.90
18218;DHT22;9234;49.344;11.120;2023-08-20T06:49:57;23.00;99.90
18218;DHT22;9234;49.344;11.120;2023-08-20T06:52:25;23.10;99.90
18218;DHT22;9234;49.344;11.120;2023-08-20T06:54:54;23.20;99.90
18218;DHT22;9234;49.344;11.120;2023-08-20T06:57:23;23.30;99.90
18218;DHT22;9234;49.344;11.120;2023-08-20T06:59:52;23.40;99.90
18218;DHT22;9234;49.344;11.120;2023-08-20T07:02:20;23.50;99.90
18218;DHT22;9234;49.344;11.120;2023-08-20T07:04:49;23.60;99.90
18218;DHT22;9234;49.344;11.120;2023-08-20T07:07:18;23.70;99.90
18218;DHT22;9234;49.344;11.120;2023-08-20T07:09:46;23.80;99.90
18218;DHT22;9234;49.344;11.120;2023-08-20T07:12:15;23.90;99.90
18218;DHT22;9234;49.344;11.120;2023-08-20T07:14:44;24.00;99.90
18218;DHT22;9234;49.344;11.120;2023-08-20T07:17:12;24.10;99.90
18218;DHT22;9234;49.344;11.120;2023-08-20T07:19:40;24.20;99.90
18218;DHT22;9234;49.344;11.120;2023-08-20T07:22:08;24.30;99.90
18218;DHT22;9234;49.344;11.120;2023-08-20T07:24:37;24.40;99.90
18218;DHT22;9234;49.344;11.120;2023-08-20T07:27:05;24.50;99.90
18218;DHT22;9234;49.344;11.120;2023-08-20T07:29:40;24.60;99.90
18218;DHT22;9234;49.344;11.120;2023-08-20T07:32:09;24.70;99.90
18218;DHT22;9234;49.344;11.120;2023-08-20T07:34:38;24.80;99.90
18218;DHT22;9234;49.344;11.120;2023-08-20T07:37:07;24.90;99.90
18218;DHT22;9234;49.344;11.120;2023-08-20T07:39:35;25.00;99.90
18218;DHT22;9234;49.344;11.120;2023-08-20T07:42:04;25.10;99.90
18218;DHT22;9234;49.344;11.120;2023-08-20T07:44:32;25.30;99.90
18218;DHT22;9234;49.344;11.120;2023-08-20T07:47:02;25.40;99.90
18218;DHT22;9234;49.344;11.120;2023-08-20T07:49:30;25.50;99.90
18218;DHT22;9234;49.344;11.120;2023-08-20T07:51:59;25.60;99.90
18218;DHT22;9234;49.344;11.120;2023-08-20T07:54:27;25.70;99.90
18218;DHT22;9234;49.344;11.120;2023-08-20T07:56:55;25.80;99.90
18218;DHT22;9234;49.344;11.120;2023-08-20T07:59:24;25.90;99.90
18218;DHT22;9234;49.344;11.120;2023-08-20T08:01:52;26.00;99.90
18218;DHT22;9234;49.344;11.120;2023-08-20T08:04:22;26.10;99.90
18218;DHT22;9234;49.344;11.120;2023-08-20T08:06:50;26.20;99.90
18218;DHT22;9234;49.344;11.120;2023-08-20T08:09:19;26.30;99.90
18218;DHT22;9234;49.344;11.120;2023-08-20T08:11:49;26.40;99.90
18218;DHT22;9234;49.344;11.120;2023-08-20T08:14:17;26.50;99.90
18218;DHT22;9234;49.344;11.120;2023-08-20T08:16:46;26.70;99.90
18218;DHT22;9234;49.344;11.120;2023-08-20T08:19:15;26.70;99.90
18218;DHT22;9234;49.344;11.120;2023-08-20T08:21:46;26.90;99.90
18218;DHT22;9234;49.344;11.120;2023-08-20T08:24:15;27.00;99.90
18218;DHT22;9234;49.344;11.120;2023-08-20T08:26:43;27.10;99.90
18218;DHT22;9234;49.344;11.120;2023-08-20T08:29:11;27.20;99.90
18218;DHT22;9234;49.344;11.120;2023-08-20T08:31:40;27.30;99.90
18218;DHT22;9234;49.344;11.120;2023-08-20T08:34:08;27.40;99.90
18218;DHT22;9234;49.344;11.120;2023-08-20T08:36:36;27.60;99.90
18218;DHT22;9234;49.344;11.120;2023-08-20T08:39:06;27.70;99.90
18218;DHT22;9234;49.344;11.120;2023-08-20T08:41:37;27.90;99.90
18218;DHT22;9234;49.344;11.120;2023-08-20T08:44:08;28.00;99.90
18218;DHT22;9234;49.344;11.120;2023-08-20T08:46:38;28.20;99.90
18218;DHT22;9234;49.344;11.120;2023-08-20T08:49:08;28.30;99.90
18218;DHT22;9234;49.344;11.120;2023-08-20T08:51:36;28.40;99.40
18218;DHT22;9234;49.344;11.120;2023-08-20T08:54:07;28.60;98.50
18218;DHT22;9234;49.344;11.120;2023-08-20T08:56:36;28.70;97.70
18218;DHT22;9234;49.344;11.120;2023-08-20T08:59:05;28.80;97.60
18218;DHT22;9234;49.344;11.120;2023-08-20T09:01:37;29.00;97.50
18218;DHT22;9234;49.344;11.120;2023-08-20T09:04:06;29.20;96.90
18218;DHT22;9234;49.344;11.120;2023-08-20T09:06:45;29.40;96.10
18218;DHT22;9234;49.344;11.120;2023-08-20T09:09:16;29.50;95.10
18218;DHT22;9234;49.344;11.120;2023-08-20T09:11:46;29.60;95.10
18218;DHT22;9234;49.344;11.120;2023-08-20T09:14:22;29.80;95.30
18218;DHT22;9234;49.344;11.120;2023-08-20T09:16:55;29.90;94.40
18218;DHT22;9234;49.344;11.120;2023-08-20T09:19:24;30.00;94.10
18218;DHT22;9234;49.344;11.120;2023-08-20T09:21:59;30.20;93.40
18218;DHT22;9234;49.344;11.120;2023-08-20T09:24:34;30.30;92.80
18218;DHT22;9234;49.344;11.120;2023-08-20T09:27:09;30.40;91.40
18218;DHT22;9234;49.344;11.120;2023-08-20T09:29:44;30.50;91.60
18218;DHT22;9234;49.344;11.120;2023-08-20T09:32:18;30.70;90.60
18218;DHT22;9234;49.344;11.120;2023-08-20T09:34:48;30.90;90.20
18218;DHT22;9234;49.344;11.120;2023-08-20T09:37:18;31.10;88.80
18218;DHT22;9234;49.344;11.120;2023-08-20T09:39:49;31.20;86.50
18218;DHT22;9234;49.344;11.120;2023-08-20T09:42:18;31.40;87.40
18218;DHT22;9234;49.344;11.120;2023-08-20T09:44:47;31.60;87.10
18218;DHT22;9234;49.344;11.120;2023-08-20T09:47:18;31.70;84.80
18218;DHT22;9234;49.344;11.120;2023-08-20T09:49:52;31.90;83.90
18218;DHT22;9234;49.344;11.120;2023-08-20T09:52:25;32.00;85.10
18218;DHT22;9234;49.344;11.120;2023-08-20T09:55:06;32.20;84.40
18218;DHT22;9234;49.344;11.120;2023-08-20T09:57:38;32.40;82.80
18218;DHT22;9234;49.344;11.120;2023-08-20T10:00:13;32.50;79.90
18218;DHT22;9234;49.344;11.120;2023-08-20T10:02:44;32.60;79.20
18218;DHT22;9234;49.344;11.120;2023-08-20T10:05:13;32.70;78.90
18218;DHT22;9234;49.344;11.120;2023-08-20T10:07:43;32.80;80.00
18218;DHT22;9234;49.344;11.120;2023-08-20T10:10:14;32.90;80.60
18218;DHT22;9234;49.344;11.120;2023-08-20T10:12:44;33.20;80.60
18218;DHT22;9234;49.344;11.120;2023-08-20T10:15:14;33.40;77.20
18218;DHT22;9234;49.344;11.120;2023-08-20T10:17:44;33.60;76.10
18218;DHT22;9234;49.344;11.120;2023-08-20T10:20:14;33.80;77.00
18218;DHT22;9234;49.344;11.120;2023-08-20T10:22:44;34.10;77.50
18218;DHT22;9234;49.344;11.120;2023-08-20T10:25:22;34.40;75.50
18218;DHT22;9234;49.344;11.120;2023-08-20T10:27:53;34.60;73.10
18218;DHT22;9234;49.344;11.120;2023-08-20T10:30:25;34.70;70.80
18218;DHT22;9234;49.344;11.120;2023-08-20T10:32:55;34.80;69.70
18218;DHT22;9234;49.344;11.120;2023-08-20T10:35:28;34.80;71.70
18218;DHT22;9234;49.344;11.120;2023-08-20T10:38:15;35.00;69.30
18218;DHT22;9234;49.344;11.120;2023-08-20T10:40:52;35.30;68.80
18218;DHT22;9234;49.344;11.120;2023-08-20T10:43:29;35.50;67.70
18218;DHT22;9234;49.344;11.120;2023-08-20T10:46:06;35.70;67.50
18218;DHT22;9234;49.344;11.120;2023-08-20T10:48:47;35.90;67.20
18218;DHT22;9234;49.344;11.120;2023-08-20T10:51:18;36.00;64.20
18218;DHT22;9234;49.344;11.120;2023-08-20T10:54:03;36.00;64.50
18218;DHT22;9234;49.344;11.120;2023-08-20T10:56:42;36.10;64.70
18218;DHT22;9234;49.344;11.120;2023-08-20T10:59:14;36.20;64.50
18218;DHT22;9234;49.344;11.120;2023-08-20T11:01:44;36.10;62.50
18218;DHT22;9234;49.344;11.120;2023-08-20T11:04:14;36.10;62.70
18218;DHT22;9234;49.344;11.120;2023-08-20T11:06:43;36.10;63.50
18218;DHT22;9234;49.344;11.120;2023-08-20T11:09:12;36.20;63.30
18218;DHT22;9234;49.344;11.120;2023-08-20T11:11:43;36.40;61.90
18218;DHT22;9234;49.344;11.120;2023-08-20T11:14:13;36.60;61.20
18218;DHT22;9234;49.344;11.120;2023-08-20T11:16:43;36.90;60.40
18218;DHT22;9234;49.344;11.120;2023-08-20T11:19:12;37.00;61.60
18218;DHT22;9234;49.344;11.120;2023-08-20T11:21:42;37.10;60.00
18218;DHT22;9234;49.344;11.120;2023-08-20T11:24:11;37.00;59.80
18218;DHT22;9234;49.344;11.120;2023-08-20T11:26:41;37.00;60.50
18218;DHT22;9234;49.344;11.120;2023-08-20T11:29:13;36.90;60.00
18218;DHT22;9234;49.344;11.120;2023-08-20T11:31:43;37.00;61.60
18218;DHT22;9234;49.344;11.120;2023-08-20T11:34:12;37.00;59.40
18218;DHT22;9234;49.344;11.120;2023-08-20T11:36:41;36.90;59.70
18218;DHT22;9234;49.344;11.120;2023-08-20T11:39:09;36.90;59.90
18218;DHT22;9234;49.344;11.120;2023-08-20T11:41:39;37.00;61.50
18218;DHT22;9234;49.344;11.120;2023-08-20T11:44:09;37.10;60.70
18218;DHT22;9234;49.344;11.120;2023-08-20T11:46:43;37.10;58.90
18218;DHT22;9234;49.344;11.120;2023-08-20T11:49:12;37.20;59.90
18218;DHT22;9234;49.344;11.120;2023-08-20T11:51:45;37.20;59.10
18218;DHT22;9234;49.344;11.120;2023-08-20T11:54:17;37.10;58.20
18218;DHT22;9234;49.344;11.120;2023-08-20T11:56:47;37.20;59.60
18218;DHT22;9234;49.344;11.120;2023-08-20T11:59:18;37.50;61.60
18218;DHT22;9234;49.344;11.120;2023-08-20T12:01:50;37.70;59.60
18218;DHT22;9234;49.344;11.120;2023-08-20T12:04:18;37.90;58.60
18218;DHT22;9234;49.344;11.120;2023-08-20T12:07:02;38.00;58.20
18218;DHT22;9234;49.344;11.120;2023-08-20T12:09:32;38.20;58.70
18218;DHT22;9234;49.344;11.120;2023-08-20T12:12:01;38.40;57.60
18218;DHT22;9234;49.344;11.120;2023-08-20T12:14:31;38.70;56.90
18218;DHT22;9234;49.344;11.120;2023-08-20T12:17:00;38.90;55.20
18218;DHT22;9234;49.344;11.120;2023-08-20T12:19:30;38.90;54.20
18218;DHT22;9234;49.344;11.120;2023-08-20T12:21:58;39.00;55.60
18218;DHT22;9234;49.344;11.120;2023-08-20T12:24:26;39.00;55.20
18218;DHT22;9234;49.344;11.120;2023-08-20T12:26:55;39.10;54.40
18218;DHT22;9234;49.344;11.120;2023-08-20T12:29:23;39.00;54.70
18218;DHT22;9234;49.344;11.120;2023-08-20T12:31:53;39.00;55.10
18218;DHT22;9234;49.344;11.120;2023-08-20T12:34:21;39.10;55.30
18218;DHT22;9234;49.344;11.120;2023-08-20T12:36:50;39.20;55.40
18218;DHT22;9234;49.344;11.120;2023-08-20T12:39:19;39.30;55.10
18218;DHT22;9234;49.344;11.120;2023-08-20T12:41:47;39.30;53.50
18218;DHT22;9234;49.344;11.120;2023-08-20T12:44:15;39.40;54.10
18218;DHT22;9234;49.344;11.120;2023-08-20T12:46:44;39.60;53.50
18218;DHT22;9234;49.344;11.120;2023-08-20T12:49:13;39.80;54.90
18218;DHT22;9234;49.344;11.120;2023-08-20T12:51:42;40.20;56.30
18218;DHT22;9234;49.344;11.120;2023-08-20T12:54:10;40.50;55.30
18218;DHT22;9234;49.344;11.120;2023-08-20T12:56:38;40.80;54.70
18218;DHT22;9234;49.344;11.120;2023-08-20T12:59:07;41.10;51.40
18218;DHT22;9234;49.344;11.120;2023-08-20T13:01:35;41.30;52.80
18218;DHT22;9234;49.344;11.120;2023-08-20T13:04:04;41.70;52.10
18218;DHT22;9234;49.344;11.120;2023-08-20T13:06:37;42.10;50.80
18218;DHT22;9234;49.344;11.120;2023-08-20T13:09:07;42.30;49.60
18218;DHT22;9234;49.344;11.120;2023-08-20T13:11:40;42.60;49.10
18218;DHT22;9234;49.344;11.120;2023-08-20T13:14:11;42.80;49.40
18218;DHT22;9234;49.344;11.120;2023-08-20T13:16:40;43.00;48.90
18218;DHT22;9234;49.344;11.120;2023-08-20T13:19:09;43.00;47.30
18218;DHT22;9234;49.344;11.120;2023-08-20T13:21:40;42.90;47.50
18218;DHT22;9234;49.344;11.120;2023-08-20T13:24:08;42.90;48.20
18218;DHT22;9234;49.344;11.120;2023-08-20T13:26:37;43.10;48.40
18218;DHT22;9234;49.344;11.120;2023-08-20T13:29:05;43.20;45.90
18218;DHT22;9234;49.344;11.120;2023-08-20T13:31:33;43.40;46.70
18218;DHT22;9234;49.344;11.120;2023-08-20T13:34:03;43.60;46.20
18218;DHT22;9234;49.344;11.120;2023-08-20T13:36:31;43.90;46.40
18218;DHT22;9234;49.344;11.120;2023-08-20T13:39:04;44.00;44.90
18218;DHT22;9234;49.344;11.120;2023-08-20T13:41:32;44.20;44.30
18218;DHT22;9234;49.344;11.120;2023-08-20T13:44:01;44.40;44.50
18218;DHT22;9234;49.344;11.120;2023-08-20T13:46:32;44.50;42.40
18218;DHT22;9234;49.344;11.120;2023-08-20T13:49:00;44.40;42.80
18218;DHT22;9234;49.344;11.120;2023-08-20T13:51:29;44.60;43.50
18218;DHT22;9234;49.344;11.120;2023-08-20T13:53:58;44.60;42.50
18218;DHT22;9234;49.344;11.120;2023-08-20T13:56:27;44.60;42.50
18218;DHT22;9234;49.344;11.120;2023-08-20T13:58:59;44.60;42.10
18218;DHT22;9234;49.344;11.120;2023-08-20T14:01:27;44.60;42.00
18218;DHT22;9234;49.344;11.120;2023-08-20T14:03:56;44.60;41.00
18218;DHT22;9234;49.344;11.120;2023-08-20T14:06:24;44.20;41.50
18218;DHT22;9234;49.344;11.120;2023-08-20T14:08:52;43.80;42.70
18218;DHT22;9234;49.344;11.120;2023-08-20T14:11:21;43.30;43.20
18218;DHT22;9234;49.344;11.120;2023-08-20T14:13:51;42.90;44.20
18218;DHT22;9234;49.344;11.120;2023-08-20T14:16:24;42.80;44.60
18218;DHT22;9234;49.344;11.120;2023-08-20T14:18:53;42.80;44.40
18218;DHT22;9234;49.344;11.120;2023-08-20T14:21:21;42.60;44.20
18218;DHT22;9234;49.344;11.120;2023-08-20T14:23:49;42.90;45.00
18218;DHT22;9234;49.344;11.120;2023-08-20T14:26:18;43.30;44.90
18218;DHT22;9234;49.344;11.120;2023-08-20T14:28:46;43.70;44.40
18218;DHT22;9234;49.344;11.120;2023-08-20T14:31:16;44.00;44.00
18218;DHT22;9234;49.344;11.120;2023-08-20T14:33:46;44.40;44.30
18218;DHT22;9234;49.344;11.120;2023-08-20T14:36:14;44.70;44.70
18218;DHT22;9234;49.344;11.120;2023-08-20T14:38:47;45.10;43.40
18218;DHT22;9234;49.344;11.120;2023-08-20T14:41:15;45.20;41.70
18218;DHT22;9234;49.344;11.120;2023-08-20T14:43:44;45.00;42.30
18218;DHT22;9234;49.344;11.120;2023-08-20T14:46:16;44.90;42.10
18218;DHT22;9234;49.344;11.120;2023-08-20T14:48:44;45.10;42.90
18218;DHT22;9234;49.344;11.120;2023-08-20T14:51:13;45.40;42.00
18218;DHT22;9234;49.344;11.120;2023-08-20T14:53:41;45.60;41.90
18218;DHT22;9234;49.344;11.120;2023-08-20T14:56:16;45.70;40.80
18218;DHT22;9234;49.344;11.120;2023-08-20T14:58:44;46.00;41.10
18218;DHT22;9234;49.344;11.120;2023-08-20T15:01:13;46.00;40.60
18218;DHT22;9234;49.344;11.120;2023-08-20T15:03:43;46.10;39.60
18218;DHT22;9234;49.344;11.120;2023-08-20T15:06:11;45.90;39.50
18218;DHT22;9234;49.344;11.120;2023-08-20T15:08:41;45.60;40.20
18218;DHT22;9234;49.344;11.120;2023-08-20T15:11:09;45.40;40.50
18218;DHT22;9234;49.344;11.120;2023-08-20T15:13:38;45.40;40.50
18218;DHT22;9234;49.344;11.120;2023-08-20T15:16:11;45.60;41.80
18218;DHT22;9234;49.344;11.120;2023-08-20T15:18:39;45.90;40.50
18218;DHT22;9234;49.344;11.120;2023-08-20T15:21:09;46.20;40.10
18218;DHT22;9234;49.344;11.120;2023-08-20T15:23:38;46.40;39.70
18218;DHT22;9234;49.344;11.120;2023-08-20T15:26:06;46.60;39.10
18218;DHT22;9234;49.344;11.120;2023-08-20T15:28:35;46.70;38.30
18218;DHT22;9234;49.344;11.120;2023-08-20T15:31:07;46.50;37.30
18218;DHT22;9234;49.344;11.120;2023-08-20T15:33:42;46.40;37.30
18218;DHT22;9234;49.344;11.120;2023-08-20T15:36:12;46.40;37.20
18218;DHT22;9234;49.344;11.120;2023-08-20T15:38:41;46.40;37.20
18218;DHT22;9234;49.344;11.120;2023-08-20T15:41:10;46.40;37.60
18218;DHT22;9234;49.344;11.120;2023-08-20T15:43:42;46.40;38.50
18218;DHT22;9234;49.344;11.120;2023-08-20T15:46:11;46.20;36.50
18218;DHT22;9234;49.344;11.120;2023-08-20T15:48:40;46.10;37.70